sensor_id;sensor_type;location;lat;lon;timestamp;pressure;altitude;pressure_sealevel;temperature
60731;BMP280;46580;52.114;11.674;2023-05-14T00:00:10;101450.34;;;12.56
60731;BMP280;46580;52.114;11.674;2023-05-14T00:02:36;101451.38;;;12.53
60731;BMP280;46580;52.114;11.674;2023-05-14T00:05:02;101453.03;;;12.54
60731;BMP280;46580;52.114;11.674;2023-05-14T00:07:27;101453.84;;;12.55
60731;BMP280;46580;52.114;11.674;2023-05-14T00:09:55;101446.06;;;12.44
60731;BMP280;46580;52.114;11.674;2023-05-14T00:12:21;101445.72;;;12.48
60731;BMP280;46580;52.114;11.674;2023-05-14T00:14:46;101444.84;;;12.37
60731;BMP280;46580;52.114;11.674;2023-05-14T00:17:12;101442.28;;;12.37
60731;BMP280;46580;52.114;11.674;2023-05-14T00:19:37;101439.91;;;12.34
60731;BMP280;46580;52.114;11.674;2023-05-14T00:22:06;101439.50;;;12.28
60731;BMP280;46580;52.114;11.674;2023-05-14T00:24:32;101439.84;;;12.24
60731;BMP280;46580;52.114;11.674;2023-05-14T00:26:58;101440.34;;;12.28
60731;BMP280;46580;52.114;11.674;2023-05-14T00:29:26;101425.09;;;12.26
60731;BMP280;46580;52.114;11.674;2023-05-14T00:31:51;101431.28;;;12.23
60731;BMP280;46580;52.114;11.674;2023-05-14T00:34:17;101439.56;;;12.16
60731;BMP280;46580;52.114;11.674;2023-05-14T00:36:42;101438.97;;;12.12
60731;BMP280;46580;52.114;11.674;2023-05-14T00:39:08;101436.13;;;12.05
60731;BMP280;46580;52.114;11.674;2023-05-14T00:41:33;101440.44;;;12.04
60731;BMP280;46580;52.114;11.674;2023-05-14T00:43:59;101431.25;;;12.00
60731;BMP280;46580;52.114;11.674;2023-05-14T00:46:24;101428.69;;;12.00
60731;BMP280;46580;52.114;11.674;2023-05-14T00:48:50;101430.31;;;12.01
60731;BMP280;46580;52.114;11.674;2023-05-14T00:51:16;101435.81;;;11.97
60731;BMP280;46580;52.114;11.674;2023-05-14T00:53:43;101432.94;;;11.89
60731;BMP280;46580;52.114;11.674;2023-05-14T00:56:09;101434.28;;;11.94
60731;BMP280;46580;52.114;11.674;2023-05-14T00:58:35;101434.72;;;11.89
60731;BMP280;46580;52.114;11.674;2023-05-14T01:01:00;101435.25;;;11.81
60731;BMP280;46580;52.114;11.674;2023-05-14T01:03:26;101437.53;;;11.86
60731;BMP280;46580;52.114;11.674;2023-05-14T01:11:56;101432.75;;;11.80
60731;BMP280;46580;52.114;11.674;2023-05-14T01:14:37;101441.34;;;11.68
60731;BMP280;46580;52.114;11.674;2023-05-14T01:17:06;101437.34;;;11.64
60731;BMP280;46580;52.114;11.674;2023-05-14T01:19:40;101430.31;;;11.66
60731;BMP280;46580;52.114;11.674;2023-05-14T01:22:06;101431.97;;;11.67
60731;BMP280;46580;52.114;11.674;2023-05-14T01:24:31;101427.53;;;11.69
60731;BMP280;46580;52.114;11.674;2023-05-14T01:27:06;101444.25;;;11.64
60731;BMP280;46580;52.114;11.674;2023-05-14T01:29:37;101434.38;;;11.58
60731;BMP280;46580;52.114;11.674;2023-05-14T01:32:06;101430.03;;;11.58
60731;BMP280;46580;52.114;11.674;2023-05-14T01:34:34;101431.38;;;11.64
60731;BMP280;46580;52.114;11.674;2023-05-14T01:37:07;101424.84;;;11.71
60731;BMP280;46580;52.114;11.674;2023-05-14T01:39:35;101418.63;;;11.85
60731;BMP280;46580;52.114;11.674;2023-05-14T01:42:03;101421.91;;;11.87
60731;BMP280;46580;52.114;11.674;2023-05-14T01:44:29;101420.88;;;11.89
60731;BMP280;46580;52.114;11.674;2023-05-14T01:46:54;101420.06;;;11.89
60731;BMP280;46580;52.114;11.674;2023-05-14T01:49:20;101420.78;;;11.91
60731;BMP280;46580;52.114;11.674;2023-05-14T01:51:45;101420.94;;;12.00
60731;BMP280;46580;52.114;11.674;2023-05-14T01:54:11;101416.88;;;12.08
60731;BMP280;46580;52.114;11.674;2023-05-14T01:56:36;101414.78;;;12.13
60731;BMP280;46580;52.114;11.674;2023-05-14T01:59:02;101411.19;;;12.16
60731;BMP280;46580;52.114;11.674;2023-05-14T02:01:33;101412.94;;;12.15
60731;BMP280;46580;52.114;11.674;2023-05-14T02:03:59;101408.59;;;12.16
60731;BMP280;46580;52.114;11.674;2023-05-14T02:06:25;101408.41;;;12.19
60731;BMP280;46580;52.114;11.674;2023-05-14T02:08:51;101414.75;;;12.26
60731;BMP280;46580;52.114;11.674;2023-05-14T02:11:16;101409.16;;;12.31
60731;BMP280;46580;52.114;11.674;2023-05-14T02:13:42;101410.38;;;12.38
60731;BMP280;46580;52.114;11.674;2023-05-14T02:16:07;101408.06;;;12.46
60731;BMP280;46580;52.114;11.674;2023-05-14T02:18:33;101407.34;;;12.55
60731;BMP280;46580;52.114;11.674;2023-05-14T02:20:58;101406.72;;;12.64
60731;BMP280;46580;52.114;11.674;2023-05-14T02:23:24;101403.63;;;12.59
60731;BMP280;46580;52.114;11.674;2023-05-14T02:25:49;101407.16;;;12.58
60731;BMP280;46580;52.114;11.674;2023-05-14T02:28:15;101405.28;;;12.60
60731;BMP280;46580;52.114;11.674;2023-05-14T02:30:40;101401.56;;;12.64
60731;BMP280;46580;52.114;11.674;2023-05-14T02:33:06;101398.41;;;12.71
60731;BMP280;46580;52.114;11.674;2023-05-14T02:35:31;101397.41;;;12.61
60731;BMP280;46580;52.114;11.674;2023-05-14T02:37:56;101399.28;;;12.59
60731;BMP280;46580;52.114;11.674;2023-05-14T02:40:23;101396.22;;;12.54
60731;BMP280;46580;52.114;11.674;2023-05-14T02:42:49;101392.78;;;12.54
60731;BMP280;46580;52.114;11.674;2023-05-14T02:45:14;101390.13;;;12.55
60731;BMP280;46580;52.114;11.674;2023-05-14T02:47:40;101398.69;;;12.56
60731;BMP280;46580;52.114;11.674;2023-05-14T02:50:06;101393.88;;;12.51
60731;BMP280;46580;52.114;11.674;2023-05-14T02:52:32;101394.75;;;12.63
60731;BMP280;46580;52.114;11.674;2023-05-14T02:54:58;101384.88;;;12.67
60731;BMP280;46580;52.114;11.674;2023-05-14T02:57:23;101390.00;;;12.57
60731;BMP280;46580;52.114;11.674;2023-05-14T02:59:51;101393.06;;;12.62
60731;BMP280;46580;52.114;11.674;2023-05-14T03:02:16;101388.44;;;12.44
60731;BMP280;46580;52.114;11.674;2023-05-14T03:04:42;101395.00;;;12.47
60731;BMP280;46580;52.114;11.674;2023-05-14T03:07:07;101391.13;;;12.42
60731;BMP280;46580;52.114;11.674;2023-05-14T03:09:33;101387.22;;;12.37
60731;BMP280;46580;52.114;11.674;2023-05-14T03:11:58;101385.28;;;12.51
60731;BMP280;46580;52.114;11.674;2023-05-14T03:14:33;101376.06;;;12.36
60731;BMP280;46580;52.114;11.674;2023-05-14T03:16:59;101384.53;;;12.38
60731;BMP280;46580;52.114;11.674;2023-05-14T03:19:24;101375.97;;;12.38
60731;BMP280;46580;52.114;11.674;2023-05-14T03:21:55;101371.84;;;12.35
60731;BMP280;46580;52.114;11.674;2023-05-14T03:24:24;101379.09;;;12.30
60731;BMP280;46580;52.114;11.674;2023-05-14T03:26:49;101371.56;;;12.27
60731;BMP280;46580;52.114;11.674;2023-05-14T03:29:18;101373.28;;;12.16
60731;BMP280;46580;52.114;11.674;2023-05-14T03:31:43;101381.38;;;12.12
60731;BMP280;46580;52.114;11.674;2023-05-14T03:34:09;101381.13;;;12.15
60731;BMP280;46580;52.114;11.674;2023-05-14T03:36:35;101381.25;;;12.36
60731;BMP280;46580;52.114;11.674;2023-05-14T03:39:02;101373.97;;;12.41
60731;BMP280;46580;52.114;11.674;2023-05-14T03:41:27;101373.72;;;12.33
60731;BMP280;46580;52.114;11.674;2023-05-14T03:43:56;101375.88;;;12.39
60731;BMP280;46580;52.114;11.674;2023-05-14T03:46:21;101369.63;;;12.42
60731;BMP280;46580;52.114;11.674;2023-05-14T03:48:47;101371.13;;;12.33
60731;BMP280;46580;52.114;11.674;2023-05-14T03:51:31;101373.47;;;12.26
60731;BMP280;46580;52.114;11.674;2023-05-14T03:53:57;101372.03;;;12.22
60731;BMP280;46580;52.114;11.674;2023-05-14T03:56:26;101372.41;;;12.28
60731;BMP280;46580;52.114;11.674;2023-05-14T03:58:51;101372.56;;;12.37
60731;BMP280;46580;52.114;11.674;2023-05-14T04:01:17;101365.91;;;12.45
60731;BMP280;46580;52.114;11.674;2023-05-14T04:03:42;101364.38;;;12.54
60731;BMP280;46580;52.114;11.674;2023-05-14T04:06:18;101357.59;;;12.53
60731;BMP280;46580;52.114;11.674;2023-05-14T04:08:43;101361.94;;;12.52
60731;BMP280;46580;52.114;11.674;2023-05-14T04:11:09;101367.56;;;12.46
60731;BMP280;46580;52.114;11.674;2023-05-14T04:13:34;101366.75;;;12.46
60731;BMP280;46580;52.114;11.674;2023-05-14T04:16:00;101364.38;;;12.43
60731;BMP280;46580;52.114;11.674;2023-05-14T04:18:31;101362.53;;;12.56
60731;BMP280;46580;52.114;11.674;2023-05-14T04:20:59;101355.72;;;12.55
60731;BMP280;46580;52.114;11.674;2023-05-14T04:23:25;101362.81;;;12.41
60731;BMP280;46580;52.114;11.674;2023-05-14T04:25:50;101362.81;;;12.41
60731;BMP280;46580;52.114;11.674;2023-05-14T04:28:18;101357.00;;;12.49
60731;BMP280;46580;52.114;11.674;2023-05-14T04:30:44;101354.69;;;12.57
60731;BMP280;46580;52.114;11.674;2023-05-14T04:33:09;101357.66;;;12.74
60731;BMP280;46580;52.114;11.674;2023-05-14T04:35:35;101362.38;;;12.69
60731;BMP280;46580;52.114;11.674;2023-05-14T04:38:00;101364.84;;;12.82
60731;BMP280;46580;52.114;11.674;2023-05-14T04:40:26;101364.53;;;12.97
60731;BMP280;46580;52.114;11.674;2023-05-14T04:42:51;101365.25;;;12.99
60731;BMP280;46580;52.114;11.674;2023-05-14T04:45:17;101366.66;;;13.02
60731;BMP280;46580;52.114;11.674;2023-05-14T04:47:42;101367.13;;;13.07
60731;BMP280;46580;52.114;11.674;2023-05-14T04:50:14;101365.72;;;13.03
60731;BMP280;46580;52.114;11.674;2023-05-14T04:52:40;101376.53;;;12.98
60731;BMP280;46580;52.114;11.674;2023-05-14T04:55:06;101364.53;;;12.97
60731;BMP280;46580;52.114;11.674;2023-05-14T04:57:31;101365.00;;;12.91
60731;BMP280;46580;52.114;11.674;2023-05-14T04:59:57;101363.81;;;12.95
60731;BMP280;46580;52.114;11.674;2023-05-14T05:02:22;101363.72;;;13.18
60731;BMP280;46580;52.114;11.674;2023-05-14T05:04:48;101361.72;;;13.10
60731;BMP280;46580;52.114;11.674;2023-05-14T05:07:13;101356.09;;;13.16
60731;BMP280;46580;52.114;11.674;2023-05-14T05:09:39;101354.78;;;13.21
60731;BMP280;46580;52.114;11.674;2023-05-14T05:12:05;101352.09;;;13.23
60731;BMP280;46580;52.114;11.674;2023-05-14T05:14:31;101356.09;;;13.16
60731;BMP280;46580;52.114;11.674;2023-05-14T05:16:56;101346.56;;;13.17
60731;BMP280;46580;52.114;11.674;2023-05-14T05:19:21;101349.75;;;13.20
60731;BMP280;46580;52.114;11.674;2023-05-14T05:21:47;101348.56;;;13.24
60731;BMP280;46580;52.114;11.674;2023-05-14T05:24:13;101357.03;;;13.37
60731;BMP280;46580;52.114;11.674;2023-05-14T05:26:38;101354.44;;;13.37
60731;BMP280;46580;52.114;11.674;2023-05-14T05:29:04;101343.16;;;13.38
60731;BMP280;46580;52.114;11.674;2023-05-14T05:31:30;101352.81;;;13.25
60731;BMP280;46580;52.114;11.674;2023-05-14T05:33:58;101359.38;;;13.18
60731;BMP280;46580;52.114;11.674;2023-05-14T05:36:23;101347.50;;;13.16
60731;BMP280;46580;52.114;11.674;2023-05-14T05:38:49;101341.03;;;13.10
60731;BMP280;46580;52.114;11.674;2023-05-14T05:41:15;101343.16;;;13.05
60731;BMP280;46580;52.114;11.674;2023-05-14T05:43:41;101339.66;;;13.06
60731;BMP280;46580;52.114;11.674;2023-05-14T05:46:06;101340.56;;;13.16
60731;BMP280;46580;52.114;11.674;2023-05-14T05:48:32;101345.84;;;13.36
60731;BMP280;46580;52.114;11.674;2023-05-14T05:50:57;101344.09;;;13.37
60731;BMP280;46580;52.114;11.674;2023-05-14T05:53:23;101341.97;;;13.41
60731;BMP280;46580;52.114;11.674;2023-05-14T05:55:48;101338.22;;;13.24
60731;BMP280;46580;52.114;11.674;2023-05-14T05:58:17;101342.34;;;13.37
60731;BMP280;46580;52.114;11.674;2023-05-14T06:00:42;101336.75;;;13.63
60731;BMP280;46580;52.114;11.674;2023-05-14T06:03:08;101342.69;;;13.54
60731;BMP280;46580;52.114;11.674;2023-05-14T06:05:38;101337.25;;;13.57
60731;BMP280;46580;52.114;11.674;2023-05-14T06:08:04;101342.16;;;13.71
60731;BMP280;46580;52.114;11.674;2023-05-14T06:10:30;101338.31;;;13.65
60731;BMP280;46580;52.114;11.674;2023-05-14T06:12:56;101338.31;;;13.55
60731;BMP280;46580;52.114;11.674;2023-05-14T06:15:21;101343.03;;;13.60
60731;BMP280;46580;52.114;11.674;2023-05-14T06:17:47;101338.19;;;13.56
60731;BMP280;46580;52.114;11.674;2023-05-14T06:20:21;101344.53;;;13.84
60731;BMP280;46580;52.114;11.674;2023-05-14T06:22:47;101344.72;;;13.92
60731;BMP280;46580;52.114;11.674;2023-05-14T06:25:12;101352.59;;;14.01
60731;BMP280;46580;52.114;11.674;2023-05-14T06:27:38;101343.91;;;13.92
60731;BMP280;46580;52.114;11.674;2023-05-14T06:30:04;101346.41;;;13.82
60731;BMP280;46580;52.114;11.674;2023-05-14T06:32:30;101336.25;;;13.90
60731;BMP280;46580;52.114;11.674;2023-05-14T06:34:55;101334.09;;;14.06
60731;BMP280;46580;52.114;11.674;2023-05-14T06:37:21;101348.19;;;14.13
60731;BMP280;46580;52.114;11.674;2023-05-14T06:39:46;101337.78;;;14.23
60731;BMP280;46580;52.114;11.674;2023-05-14T06:42:17;101334.38;;;14.23
60731;BMP280;46580;52.114;11.674;2023-05-14T06:44:43;101338.59;;;14.24
60731;BMP280;46580;52.114;11.674;2023-05-14T06:47:09;101340.16;;;14.15
60731;BMP280;46580;52.114;11.674;2023-05-14T06:49:35;101339.00;;;14.09
60731;BMP280;46580;52.114;11.674;2023-05-14T06:52:01;101334.59;;;14.50
60731;BMP280;46580;52.114;11.674;2023-05-14T06:54:28;101342.00;;;14.55
60731;BMP280;46580;52.114;11.674;2023-05-14T06:56:53;101337.63;;;14.55
60731;BMP280;46580;52.114;11.674;2023-05-14T06:59:19;101341.72;;;14.58
60731;BMP280;46580;52.114;11.674;2023-05-14T07:01:44;101333.00;;;14.79
60731;BMP280;46580;52.114;11.674;2023-05-14T07:04:10;101332.06;;;14.80
60731;BMP280;46580;52.114;11.674;2023-05-14T07:06:35;101321.75;;;15.09
60731;BMP280;46580;52.114;11.674;2023-05-14T07:09:01;101330.06;;;15.12
60731;BMP280;46580;52.114;11.674;2023-05-14T07:11:29;101321.41;;;15.23
60731;BMP280;46580;52.114;11.674;2023-05-14T07:14:02;101319.22;;;15.27
60731;BMP280;46580;52.114;11.674;2023-05-14T07:19:24;101319.31;;;15.17
60731;BMP280;46580;52.114;11.674;2023-05-14T07:21:52;101308.38;;;15.52
60731;BMP280;46580;52.114;11.674;2023-05-14T07:24:18;101297.53;;;15.28
60731;BMP280;46580;52.114;11.674;2023-05-14T07:26:43;101296.06;;;15.35
60731;BMP280;46580;52.114;11.674;2023-05-14T07:29:09;101295.38;;;15.43
60731;BMP280;46580;52.114;11.674;2023-05-14T07:31:34;101296.25;;;15.62
60731;BMP280;46580;52.114;11.674;2023-05-14T07:34:00;101293.09;;;15.67
60731;BMP280;46580;52.114;11.674;2023-05-14T07:36:25;101289.44;;;15.79
60731;BMP280;46580;52.114;11.674;2023-05-14T07:38:51;101289.88;;;16.21
60731;BMP280;46580;52.114;11.674;2023-05-14T07:41:16;101287.69;;;16.26
60731;BMP280;46580;52.114;11.674;2023-05-14T07:43:42;101285.22;;;16.24
60731;BMP280;46580;52.114;11.674;2023-05-14T07:46:08;101285.69;;;16.65
60731;BMP280;46580;52.114;11.674;2023-05-14T07:48:33;101272.31;;;16.60
60731;BMP280;46580;52.114;11.674;2023-05-14T07:50:58;101277.25;;;16.63
60731;BMP280;46580;52.114;11.674;2023-05-14T07:53:24;101275.09;;;16.85
60731;BMP280;46580;52.114;11.674;2023-05-14T07:55:50;101268.69;;;16.79
60731;BMP280;46580;52.114;11.674;2023-05-14T07:58:15;101276.91;;;16.84
60731;BMP280;46580;52.114;11.674;2023-05-14T08:00:41;101272.63;;;17.02
60731;BMP280;46580;52.114;11.674;2023-05-14T08:03:06;101262.31;;;17.10
60731;BMP280;46580;52.114;11.674;2023-05-14T08:05:32;101257.41;;;17.07
60731;BMP280;46580;52.114;11.674;2023-05-14T08:07:57;101269.25;;;17.18
60731;BMP280;46580;52.114;11.674;2023-05-14T08:10:22;101254.28;;;17.30
60731;BMP280;46580;52.114;11.674;2023-05-14T08:12:48;101252.38;;;17.49
60731;BMP280;46580;52.114;11.674;2023-05-14T08:15:13;101245.19;;;17.77
60731;BMP280;46580;52.114;11.674;2023-05-14T08:17:38;101249.53;;;17.86
60731;BMP280;46580;52.114;11.674;2023-05-14T08:20:05;101239.13;;;18.27
60731;BMP280;46580;52.114;11.674;2023-05-14T08:22:31;101235.44;;;18.80
60731;BMP280;46580;52.114;11.674;2023-05-14T08:24:56;101238.78;;;18.97
60731;BMP280;46580;52.114;11.674;2023-05-14T08:27:21;101231.66;;;19.07
60731;BMP280;46580;52.114;11.674;2023-05-14T08:34:37;101233.00;;;19.74
60731;BMP280;46580;52.114;11.674;2023-05-14T08:37:03;101226.31;;;19.95
60731;BMP280;46580;52.114;11.674;2023-05-14T08:39:28;101229.44;;;20.14
60731;BMP280;46580;52.114;11.674;2023-05-14T08:41:56;101222.56;;;19.98
60731;BMP280;46580;52.114;11.674;2023-05-14T08:44:32;101225.34;;;20.04
60731;BMP280;46580;52.114;11.674;2023-05-14T08:47:00;101225.34;;;20.04
60731;BMP280;46580;52.114;11.674;2023-05-14T08:51:58;101213.59;;;20.00
60731;BMP280;46580;52.114;11.674;2023-05-14T08:54:24;101221.25;;;20.10
60731;BMP280;46580;52.114;11.674;2023-05-14T08:56:51;101207.19;;;20.34
60731;BMP280;46580;52.114;11.674;2023-05-14T08:59:16;101213.75;;;20.38
60731;BMP280;46580;52.114;11.674;2023-05-14T09:01:51;101206.69;;;20.54
60731;BMP280;46580;52.114;11.674;2023-05-14T09:04:22;101209.66;;;20.43
60731;BMP280;46580;52.114;11.674;2023-05-14T09:06:48;101209.78;;;20.57
60731;BMP280;46580;52.114;11.674;2023-05-14T09:09:14;101207.47;;;20.62
60731;BMP280;46580;52.114;11.674;2023-05-14T09:11:46;101197.22;;;20.53
60731;BMP280;46580;52.114;11.674;2023-05-14T09:14:12;101196.09;;;20.48
60731;BMP280;46580;52.114;11.674;2023-05-14T09:16:38;101185.97;;;20.90
60731;BMP280;46580;52.114;11.674;2023-05-14T09:19:05;101185.53;;;20.71
60731;BMP280;46580;52.114;11.674;2023-05-14T09:21:31;101184.94;;;20.61
60731;BMP280;46580;52.114;11.674;2023-05-14T09:23:56;101191.84;;;20.47
60731;BMP280;46580;52.114;11.674;2023-05-14T09:26:23;101180.69;;;20.60
60731;BMP280;46580;52.114;11.674;2023-05-14T09:28:54;101181.47;;;21.06
60731;BMP280;46580;52.114;11.674;2023-05-14T09:31:25;101176.31;;;20.90
60731;BMP280;46580;52.114;11.674;2023-05-14T09:33:50;101175.09;;;20.63
60731;BMP280;46580;52.114;11.674;2023-05-14T09:36:16;101175.50;;;20.45
60731;BMP280;46580;52.114;11.674;2023-05-14T09:38:42;101172.88;;;20.29
60731;BMP280;46580;52.114;11.674;2023-05-14T09:41:07;101168.66;;;20.20
60731;BMP280;46580;52.114;11.674;2023-05-14T09:43:33;101169.47;;;20.21
60731;BMP280;46580;52.114;11.674;2023-05-14T09:45:58;101165.38;;;20.11
60731;BMP280;46580;52.114;11.674;2023-05-14T09:48:24;101163.09;;;20.15
60731;BMP280;46580;52.114;11.674;2023-05-14T09:50:49;101157.22;;;20.21
60731;BMP280;46580;52.114;11.674;2023-05-14T09:53:16;101144.09;;;20.45
60731;BMP280;46580;52.114;11.674;2023-05-14T09:55:41;101139.47;;;20.62
60731;BMP280;46580;52.114;11.674;2023-05-14T09:58:07;101144.09;;;20.52
60731;BMP280;46580;52.114;11.674;2023-05-14T10:00:33;101141.75;;;20.65
60731;BMP280;46580;52.114;11.674;2023-05-14T10:03:05;101142.16;;;20.47
60731;BMP280;46580;52.114;11.674;2023-05-14T10:05:34;101137.69;;;20.92
60731;BMP280;46580;52.114;11.674;2023-05-14T10:08:02;101121.91;;;21.38
60731;BMP280;46580;52.114;11.674;2023-05-14T10:10:31;101115.56;;;21.54
60731;BMP280;46580;52.114;11.674;2023-05-14T10:13:06;101119.72;;;21.85
60731;BMP280;46580;52.114;11.674;2023-05-14T10:16:07;101109.94;;;22.15
60731;BMP280;46580;52.114;11.674;2023-05-14T10:18:39;101120.78;;;21.76
60731;BMP280;46580;52.114;11.674;2023-05-14T10:21:06;101113.97;;;21.67
60731;BMP280;46580;52.114;11.674;2023-05-14T10:23:32;101115.75;;;21.53
60731;BMP280;46580;52.114;11.674;2023-05-14T10:25:59;101106.59;;;21.27
60731;BMP280;46580;52.114;11.674;2023-05-14T10:28:25;101120.53;;;21.27
60731;BMP280;46580;52.114;11.674;2023-05-14T10:30:50;101106.69;;;21.11
60731;BMP280;46580;52.114;11.674;2023-05-14T10:33:16;101104.91;;;21.04
60731;BMP280;46580;52.114;11.674;2023-05-14T10:36:05;101111.25;;;20.87
60731;BMP280;46580;52.114;11.674;2023-05-14T10:38:35;101104.78;;;20.98
60731;BMP280;46580;52.114;11.674;2023-05-14T10:41:04;101091.00;;;21.33
60731;BMP280;46580;52.114;11.674;2023-05-14T10:43:35;101087.00;;;21.81
60731;BMP280;46580;52.114;11.674;2023-05-14T10:46:01;101085.44;;;22.08
60731;BMP280;46580;52.114;11.674;2023-05-14T10:48:27;101075.84;;;22.43
60731;BMP280;46580;52.114;11.674;2023-05-14T10:50:55;101084.25;;;22.53
60731;BMP280;46580;52.114;11.674;2023-05-14T10:53:33;101073.94;;;21.95
60731;BMP280;46580;52.114;11.674;2023-05-14T10:56:17;101072.16;;;22.10
60731;BMP280;46580;52.114;11.674;2023-05-14T10:58:43;101073.31;;;22.21
60731;BMP280;46580;52.114;11.674;2023-05-14T11:01:11;101069.16;;;22.69
60731;BMP280;46580;52.114;11.674;2023-05-14T11:03:42;101069.94;;;22.84
60731;BMP280;46580;52.114;11.674;2023-05-14T11:06:10;101075.00;;;23.06
60731;BMP280;46580;52.114;11.674;2023-05-14T11:08:36;101069.50;;;22.38
60731;BMP280;46580;52.114;11.674;2023-05-14T11:11:01;101061.56;;;22.03
60731;BMP280;46580;52.114;11.674;2023-05-14T11:13:27;101067.09;;;21.72
60731;BMP280;46580;52.114;11.674;2023-05-14T11:15:52;101072.84;;;21.54
60731;BMP280;46580;52.114;11.674;2023-05-14T11:18:28;101067.84;;;21.44
60731;BMP280;46580;52.114;11.674;2023-05-14T11:21:00;101073.22;;;21.43
60731;BMP280;46580;52.114;11.674;2023-05-14T11:23:26;101069.94;;;21.49
60731;BMP280;46580;52.114;11.674;2023-05-14T11:25:53;101066.50;;;21.48
60731;BMP280;46580;52.114;11.674;2023-05-14T11:28:22;101058.16;;;21.45
60731;BMP280;46580;52.114;11.674;2023-05-14T11:30:48;101066.63;;;21.33
60731;BMP280;46580;52.114;11.674;2023-05-14T11:33:15;101059.75;;;21.32
60731;BMP280;46580;52.114;11.674;2023-05-14T11:35:41;101062.47;;;21.16
60731;BMP280;46580;52.114;11.674;2023-05-14T11:38:13;101059.63;;;21.25
60731;BMP280;46580;52.114;11.674;2023-05-14T11:40:39;101062.97;;;21.20
60731;BMP280;46580;52.114;11.674;2023-05-14T11:43:04;101055.72;;;21.43
60731;BMP280;46580;52.114;11.674;2023-05-14T11:45:30;101054.69;;;21.30
60731;BMP280;46580;52.114;11.674;2023-05-14T11:47:57;101052.38;;;21.35
60731;BMP280;46580;52.114;11.674;2023-05-14T11:50:22;101053.13;;;21.58
60731;BMP280;46580;52.114;11.674;2023-05-14T11:52:47;101054.28;;;21.41
60731;BMP280;46580;52.114;11.674;2023-05-14T11:55:15;101051.34;;;21.36
60731;BMP280;46580;52.114;11.674;2023-05-14T11:57:41;101050.84;;;21.41
60731;BMP280;46580;52.114;11.674;2023-05-14T12:00:08;101050.53;;;21.58
60731;BMP280;46580;52.114;11.674;2023-05-14T12:02:35;101043.94;;;21.61
60731;BMP280;46580;52.114;11.674;2023-05-14T12:05:01;101038.25;;;21.72
60731;BMP280;46580;52.114;11.674;2023-05-14T12:07:28;101040.59;;;21.53
60731;BMP280;46580;52.114;11.674;2023-05-14T12:10:00;101040.56;;;22.03
60731;BMP280;46580;52.114;11.674;2023-05-14T12:12:25;101036.16;;;21.90
60731;BMP280;46580;52.114;11.674;2023-05-14T12:14:50;101037.69;;;21.98
60731;BMP280;46580;52.114;11.674;2023-05-14T12:17:21;101038.59;;;22.05
60731;BMP280;46580;52.114;11.674;2023-05-14T12:19:48;101031.91;;;22.03
60731;BMP280;46580;52.114;11.674;2023-05-14T12:22:21;101035.78;;;22.07
60731;BMP280;46580;52.114;11.674;2023-05-14T12:24:58;101029.47;;;22.01
60731;BMP280;46580;52.114;11.674;2023-05-14T12:27:25;101032.22;;;21.72
60731;BMP280;46580;52.114;11.674;2023-05-14T12:30:00;101027.50;;;21.67
60731;BMP280;46580;52.114;11.674;2023-05-14T12:32:27;101023.19;;;21.74
60731;BMP280;46580;52.114;11.674;2023-05-14T12:34:52;101027.47;;;22.03
60731;BMP280;46580;52.114;11.674;2023-05-14T12:37:18;101017.06;;;22.24
60731;BMP280;46580;52.114;11.674;2023-05-14T12:39:43;101018.16;;;22.29
60731;BMP280;46580;52.114;11.674;2023-05-14T12:42:09;101019.16;;;22.00
60731;BMP280;46580;52.114;11.674;2023-05-14T12:44:34;101011.84;;;21.96
60731;BMP280;46580;52.114;11.674;2023-05-14T12:46:59;101023.19;;;21.74
60731;BMP280;46580;52.114;11.674;2023-05-14T12:49:25;101013.41;;;21.54
60731;BMP280;46580;52.114;11.674;2023-05-14T12:51:50;101013.38;;;21.18
60731;BMP280;46580;52.114;11.674;2023-05-14T12:54:15;101018.44;;;21.20
60731;BMP280;46580;52.114;11.674;2023-05-14T12:56:41;101008.63;;;21.22
60731;BMP280;46580;52.114;11.674;2023-05-14T12:59:06;101008.31;;;21.17
60731;BMP280;46580;52.114;11.674;2023-05-14T13:01:33;101003.91;;;21.09
60731;BMP280;46580;52.114;11.674;2023-05-14T13:03:58;101001.94;;;21.19
60731;BMP280;46580;52.114;11.674;2023-05-14T13:06:24;100998.50;;;21.19
60731;BMP280;46580;52.114;11.674;2023-05-14T13:08:49;101000.06;;;21.27
60731;BMP280;46580;52.114;11.674;2023-05-14T13:11:15;100993.25;;;21.19
60731;BMP280;46580;52.114;11.674;2023-05-14T13:13:40;100988.13;;;21.25
60731;BMP280;46580;52.114;11.674;2023-05-14T13:16:06;100983.00;;;21.31
60731;BMP280;46580;52.114;11.674;2023-05-14T13:18:31;100990.91;;;21.02
60731;BMP280;46580;52.114;11.674;2023-05-14T13:20:56;100982.66;;;21.12
60731;BMP280;46580;52.114;11.674;2023-05-14T13:23:22;100980.00;;;21.20
60731;BMP280;46580;52.114;11.674;2023-05-14T13:25:47;100981.88;;;21.04
60731;BMP280;46580;52.114;11.674;2023-05-14T13:28:13;100976.31;;;21.07
60731;BMP280;46580;52.114;11.674;2023-05-14T13:30:38;100977.25;;;21.14
60731;BMP280;46580;52.114;11.674;2023-05-14T13:33:04;100971.03;;;21.15
60731;BMP280;46580;52.114;11.674;2023-05-14T13:35:29;100960.44;;;21.08
60731;BMP280;46580;52.114;11.674;2023-05-14T13:37:55;100967.66;;;21.06
60731;BMP280;46580;52.114;11.674;2023-05-14T13:40:20;100963.22;;;21.07
60731;BMP280;46580;52.114;11.674;2023-05-14T13:42:45;100962.81;;;21.18
60731;BMP280;46580;52.114;11.674;2023-05-14T13:45:11;100959.97;;;21.27
60731;BMP280;46580;52.114;11.674;2023-05-14T13:47:37;100960.06;;;21.33
60731;BMP280;46580;52.114;11.674;2023-05-14T13:50:02;100949.94;;;21.30
60731;BMP280;46580;52.114;11.674;2023-05-14T13:52:28;100948.09;;;21.67
60731;BMP280;46580;52.114;11.674;2023-05-14T13:54:53;100949.34;;;21.85
60731;BMP280;46580;52.114;11.674;2023-05-14T13:57:18;100937.22;;;22.61